createdAt,value
2017-06-09T00:00:54.769Z,21.15
2017-06-09T00:01:55.414Z,21.09
2017-06-09T00:02:56.058Z,21.09
2017-06-09T00:03:56.697Z,21.12
2017-06-09T00:04:57.339Z,21.14
2017-06-09T00:05:57.983Z,21.14
2017-06-09T00:06:58.621Z,21.11
2017-06-09T00:07:59.816Z,21.15
2017-06-09T00:09:00.458Z,21.12
2017-06-09T00:10:01.099Z,21.12
2017-06-09T00:11:01.740Z,21.14
2017-06-09T00:12:02.385Z,21.15
2017-06-09T00:13:03.027Z,21.15
2017-06-09T00:14:03.665Z,21.14
2017-06-09T00:15:04.308Z,21.14
2017-06-09T00:16:04.951Z,21.15
2017-06-09T00:17:05.796Z,21.12
2017-06-09T00:18:06.436Z,21.12
2017-06-09T00:19:07.080Z,21.12
2017-06-09T00:20:07.719Z,21.12
2017-06-09T00:21:08.364Z,21.12
2017-06-09T00:22:09.011Z,21.12
2017-06-09T00:23:09.649Z,21.11
2017-06-09T00:24:10.290Z,21.14
2017-06-09T00:25:11.082Z,21.09
2017-06-09T00:26:11.726Z,21.09
2017-06-09T00:27:12.374Z,21.09
2017-06-09T00:28:13.011Z,21.15
2017-06-09T00:29:13.653Z,21.07
2017-06-09T00:30:14.295Z,21.07
2017-06-09T00:31:14.936Z,21.07
2017-06-09T00:32:15.579Z,21.18
2017-06-09T00:33:16.423Z,21.11
2017-06-09T00:34:17.124Z,21.09
2017-06-09T00:35:17.766Z,21.07
2017-06-09T00:36:18.408Z,21.12
2017-06-09T00:37:19.050Z,21.02
2017-06-09T00:38:19.693Z,21.09
2017-06-09T00:39:20.333Z,21.12
2017-06-09T00:40:20.973Z,21.12
2017-06-09T00:41:21.765Z,21.07
2017-06-09T00:42:22.407Z,21.03
2017-06-09T00:43:23.050Z,21.12
2017-06-09T00:44:23.690Z,21.09
2017-06-09T00:45:24.332Z,21.14
2017-06-09T00:46:24.975Z,21.09
2017-06-09T00:47:25.618Z,21.07
2017-06-09T00:48:26.259Z,21.11
2017-06-09T00:49:27.101Z,21.14
2017-06-09T00:50:27.745Z,21.07
2017-06-09T00:51:28.387Z,21.06
2017-06-09T00:52:29.032Z,21.09
2017-06-09T00:53:29.673Z,21.12
2017-06-09T00:54:30.315Z,21.06
2017-06-09T00:55:30.957Z,21.06
2017-06-09T00:56:31.600Z,21.07
2017-06-09T00:57:32.239Z,21.09
2017-06-09T00:58:33.185Z,21.12
2017-06-09T00:59:33.834Z,21.07
2017-06-09T01:00:34.480Z,21.03
2017-06-09T01:01:35.127Z,21.07
2017-06-09T01:02:35.768Z,21.11
2017-06-09T01:03:36.412Z,21.07
2017-06-09T01:04:37.051Z,21.06
2017-06-09T01:05:37.691Z,21.03
2017-06-09T01:06:38.485Z,21.06
2017-06-09T01:07:39.129Z,21.03
2017-06-09T01:08:39.770Z,21.00
2017-06-09T01:09:40.413Z,21.07
2017-06-09T01:10:41.055Z,21.03
2017-06-09T01:11:41.700Z,21.00
2017-06-09T01:12:42.339Z,21.05
2017-06-09T01:13:42.981Z,21.06
2017-06-09T01:14:43.723Z,21.07
2017-06-09T01:15:44.364Z,21.03
2017-06-09T01:16:45.009Z,21.06
2017-06-09T01:17:45.652Z,20.99
2017-06-09T01:18:46.297Z,21.03
2017-06-09T01:19:46.935Z,21.09
2017-06-09T01:20:47.576Z,21.07
2017-06-09T01:21:48.217Z,21.05
2017-06-09T01:22:49.060Z,21.06
2017-06-09T01:23:49.704Z,21.05
2017-06-09T01:24:50.345Z,21.05
2017-06-09T01:25:50.988Z,21.02
2017-06-09T01:26:51.630Z,21.02
2017-06-09T01:27:52.272Z,21.06
2017-06-09T01:28:52.912Z,21.07
2017-06-09T01:29:53.554Z,21.02
2017-06-09T01:30:54.206Z,21.03
2017-06-09T01:31:55.049Z,21.06
2017-06-09T01:32:55.689Z,21.03
2017-06-09T01:33:56.330Z,21.09
2017-06-09T01:34:56.974Z,21.02
2017-06-09T01:35:57.614Z,21.03
2017-06-09T01:36:58.256Z,21.05
2017-06-09T01:37:58.901Z,21.05
2017-06-09T01:38:59.540Z,21.05
2017-06-09T01:40:00.331Z,21.11
2017-06-09T01:41:00.976Z,21.05
2017-06-09T01:42:01.618Z,21.07
2017-06-09T01:43:02.266Z,21.05
2017-06-09T01:44:02.898Z,21.07
2017-06-09T01:45:03.540Z,21.03
2017-06-09T01:46:04.183Z,21.05
2017-06-09T01:47:04.822Z,21.07
2017-06-09T01:48:05.668Z,21.06
2017-06-09T01:49:06.307Z,21.06
2017-06-09T01:50:06.949Z,21.02
2017-06-09T01:51:07.591Z,21.03
2017-06-09T01:52:08.232Z,21.05
2017-06-09T01:53:08.824Z,21.03
2017-06-09T01:54:09.467Z,21.09
2017-06-09T01:55:10.109Z,21.02
2017-06-09T01:56:10.902Z,21.03
2017-06-09T01:57:11.542Z,20.95
2017-06-09T01:58:12.182Z,21.02
2017-06-09T01:59:12.822Z,21.02
2017-06-09T02:00:13.464Z,21.05
2017-06-09T02:01:14.105Z,21.09
2017-06-09T02:02:14.750Z,21.11
2017-06-09T02:03:15.393Z,21.02
2017-06-09T02:04:16.237Z,21.02
2017-06-09T02:05:16.878Z,21.09
2017-06-09T02:06:17.522Z,20.96
2017-06-09T02:07:18.162Z,21.03
2017-06-09T02:08:18.805Z,21.02
2017-06-09T02:09:19.449Z,21.02
2017-06-09T02:10:20.093Z,21.03
2017-06-09T02:11:20.735Z,21.07
2017-06-09T02:12:21.376Z,21.11
2017-06-09T02:13:22.166Z,20.95
2017-06-09T02:14:22.810Z,21.05
2017-06-09T02:15:23.453Z,21.07
2017-06-09T02:16:24.094Z,21.09
2017-06-09T02:17:24.737Z,21.11
2017-06-09T02:18:25.382Z,20.95
2017-06-09T02:19:26.022Z,21.02
2017-06-09T02:20:26.664Z,21.02
2017-06-09T02:21:27.608Z,21.07
2017-06-09T02:22:28.248Z,21.05
2017-06-09T02:23:28.889Z,21.11
2017-06-09T02:24:29.531Z,21.09
2017-06-09T02:25:30.174Z,21.07
2017-06-09T02:26:30.814Z,21.07
2017-06-09T02:27:31.455Z,21.05
2017-06-09T02:28:32.097Z,21.05
2017-06-09T02:29:32.940Z,20.99
2017-06-09T02:30:33.580Z,21.09
2017-06-09T02:31:34.222Z,21.07
2017-06-09T02:32:34.865Z,21.02
2017-06-09T02:33:35.507Z,21.02
2017-06-09T02:34:36.149Z,20.97
2017-06-09T02:35:36.791Z,21.00
2017-06-09T02:36:37.432Z,21.00
2017-06-09T02:37:38.222Z,21.03
2017-06-09T02:38:38.866Z,21.07
2017-06-09T02:39:39.507Z,20.93
2017-06-09T02:40:40.148Z,21.05
2017-06-09T02:41:40.790Z,21.00
2017-06-09T02:42:41.430Z,21.02
2017-06-09T02:43:42.074Z,21.02
2017-06-09T02:44:42.714Z,20.99
2017-06-09T02:45:43.357Z,21.00
2017-06-09T02:46:44.398Z,21.00
2017-06-09T02:47:45.040Z,21.06
2017-06-09T02:48:45.686Z,20.96
2017-06-09T02:49:46.327Z,20.97
2017-06-09T02:50:46.966Z,20.97
2017-06-09T02:51:47.609Z,20.97
2017-06-09T02:52:48.249Z,21.07
2017-06-09T02:53:48.894Z,21.06
2017-06-09T02:54:49.736Z,20.97
2017-06-09T02:55:50.375Z,21.07
2017-06-09T02:56:51.016Z,20.97
2017-06-09T02:57:51.659Z,20.92
2017-06-09T02:58:52.299Z,21.05
2017-06-09T02:59:52.943Z,21.06
2017-06-09T03:00:53.586Z,21.02
2017-06-09T03:01:54.229Z,20.97
2017-06-09T03:02:55.019Z,21.00
2017-06-09T03:03:55.662Z,21.09
2017-06-09T03:04:56.306Z,20.95
2017-06-09T03:05:56.951Z,21.05
2017-06-09T03:06:57.589Z,21.00
2017-06-09T03:07:58.232Z,21.03
2017-06-09T03:08:58.872Z,20.96
2017-06-09T03:09:59.521Z,21.02
2017-06-09T03:11:00.363Z,21.00
2017-06-09T03:12:01.008Z,20.99
2017-06-09T03:13:01.649Z,21.06
2017-06-09T03:14:02.325Z,21.00
2017-06-09T03:15:02.936Z,21.07
2017-06-09T03:16:03.578Z,21.02
2017-06-09T03:17:04.221Z,21.07
2017-06-09T03:18:04.860Z,20.96
2017-06-09T03:19:05.704Z,20.96
2017-06-09T03:20:06.349Z,20.97
2017-06-09T03:21:06.987Z,21.07
2017-06-09T03:22:07.630Z,20.99
2017-06-09T03:23:08.271Z,20.97
2017-06-09T03:24:08.911Z,20.95
2017-06-09T03:25:09.555Z,21.02
2017-06-09T03:26:10.196Z,20.95
2017-06-09T03:27:10.837Z,21.06
2017-06-09T03:28:11.630Z,21.02
2017-06-09T03:29:12.273Z,20.93
2017-06-09T03:30:12.913Z,20.96
2017-06-09T03:31:13.554Z,21.07
2017-06-09T03:32:14.195Z,21.03
2017-06-09T03:33:14.836Z,21.02
2017-06-09T03:34:15.478Z,21.02
2017-06-09T03:35:16.125Z,20.97
2017-06-09T03:36:16.964Z,21.03
2017-06-09T03:37:17.612Z,20.99
2017-06-09T03:38:18.248Z,21.03
2017-06-09T03:39:18.888Z,21.00
2017-06-09T03:40:19.532Z,21.03
2017-06-09T03:41:20.174Z,21.05
2017-06-09T03:42:20.817Z,21.03
2017-06-09T03:43:21.456Z,20.96
2017-06-09T03:44:22.302Z,21.00
2017-06-09T03:45:22.940Z,21.05
2017-06-09T03:46:23.588Z,20.93
2017-06-09T03:47:24.226Z,20.95
2017-06-09T03:48:24.866Z,20.96
2017-06-09T03:49:25.511Z,20.97
2017-06-09T03:50:26.148Z,21.05
2017-06-09T03:51:26.789Z,20.96
2017-06-09T03:52:27.530Z,20.97
2017-06-09T03:53:28.174Z,21.02
2017-06-09T03:54:28.815Z,21.06
2017-06-09T03:55:29.457Z,20.95
2017-06-09T03:56:30.100Z,20.99
2017-06-09T03:57:30.742Z,21.03
2017-06-09T03:58:31.382Z,20.99
2017-06-09T03:59:32.022Z,20.92
2017-06-09T04:00:32.664Z,20.95
2017-06-09T04:01:33.804Z,21.00
2017-06-09T04:02:34.449Z,21.03
2017-06-09T04:03:35.090Z,20.96
2017-06-09T04:04:35.731Z,21.05
2017-06-09T04:05:36.374Z,20.96
2017-06-09T04:06:37.014Z,20.95
2017-06-09T04:07:37.657Z,21.05
2017-06-09T04:08:38.300Z,21.00
2017-06-09T04:09:39.142Z,21.05
2017-06-09T04:10:39.785Z,20.99
2017-06-09T04:11:40.425Z,20.95
2017-06-09T04:12:41.066Z,20.93
2017-06-09T04:13:41.711Z,20.97
2017-06-09T04:14:42.354Z,21.00
2017-06-09T04:15:43.000Z,20.87
2017-06-09T04:16:43.638Z,20.88
2017-06-09T04:17:44.479Z,20.87
2017-06-09T04:18:45.121Z,20.88
2017-06-09T04:19:45.763Z,20.87
2017-06-09T04:20:46.408Z,20.88
2017-06-09T04:21:47.049Z,20.99
2017-06-09T04:22:47.695Z,20.97
2017-06-09T04:23:48.331Z,20.96
2017-06-09T04:24:48.973Z,20.92
2017-06-09T04:25:49.763Z,20.95
2017-06-09T04:26:50.405Z,20.95
2017-06-09T04:27:51.046Z,20.97
2017-06-09T04:28:51.689Z,20.88
2017-06-09T04:29:52.328Z,20.95
2017-06-09T04:30:52.974Z,20.95
2017-06-09T04:31:53.617Z,21.02
2017-06-09T04:32:54.258Z,20.96
2017-06-09T04:33:55.100Z,20.96
2017-06-09T04:34:55.743Z,20.95
2017-06-09T04:35:56.384Z,20.96
2017-06-09T04:36:57.026Z,20.95
2017-06-09T04:37:57.673Z,20.95
2017-06-09T04:38:58.310Z,20.97
2017-06-09T04:39:58.951Z,20.99
2017-06-09T04:40:59.596Z,20.97
2017-06-09T04:42:00.238Z,20.93
2017-06-09T04:43:01.077Z,20.97
2017-06-09T04:44:01.721Z,20.99
2017-06-09T04:45:02.362Z,20.96
2017-06-09T04:46:03.002Z,20.96
2017-06-09T04:47:03.646Z,20.97
2017-06-09T04:48:04.286Z,21.00
2017-06-09T04:49:04.930Z,20.93
2017-06-09T04:50:05.578Z,20.99
2017-06-09T04:51:06.365Z,20.99
2017-06-09T04:52:07.012Z,20.84
2017-06-09T04:53:07.651Z,21.00
2017-06-09T04:54:08.296Z,20.85
2017-06-09T04:55:08.937Z,20.95
2017-06-09T04:56:09.581Z,20.87
2017-06-09T04:57:10.220Z,20.88
2017-06-09T04:58:10.861Z,20.84
2017-06-09T04:59:11.705Z,20.78
2017-06-09T05:00:12.347Z,20.82
2017-06-09T05:01:12.992Z,20.78
2017-06-09T05:02:13.632Z,20.77
2017-06-09T05:03:14.272Z,20.84
2017-06-09T05:04:14.913Z,20.84
2017-06-09T05:05:15.554Z,20.75
2017-06-09T05:06:16.198Z,20.81
2017-06-09T05:07:17.041Z,20.78
2017-06-09T05:08:17.682Z,20.74
2017-06-09T05:09:18.322Z,20.72
2017-06-09T05:10:18.965Z,20.77
2017-06-09T05:11:19.605Z,20.78
2017-06-09T05:12:20.249Z,20.77
2017-06-09T05:13:20.893Z,20.80
2017-06-09T05:14:21.539Z,20.67
2017-06-09T05:15:22.376Z,20.72
2017-06-09T05:16:23.020Z,20.80
2017-06-09T05:17:23.659Z,20.78
2017-06-09T05:18:24.303Z,20.78
2017-06-09T05:19:24.946Z,20.77
2017-06-09T05:20:25.589Z,20.80
2017-06-09T05:21:26.228Z,20.66
2017-06-09T05:22:26.869Z,20.75
2017-06-09T05:23:27.513Z,20.63
2017-06-09T05:24:28.353Z,20.60
2017-06-09T05:25:28.994Z,20.72
2017-06-09T05:26:29.635Z,20.70
2017-06-09T05:27:30.276Z,20.66
2017-06-09T05:28:30.919Z,20.62
2017-06-09T05:29:31.560Z,20.72
2017-06-09T05:30:32.156Z,20.70
2017-06-09T05:31:32.793Z,20.75
2017-06-09T05:32:33.685Z,20.75
2017-06-09T05:33:34.327Z,20.70
2017-06-09T05:34:34.966Z,20.70
2017-06-09T05:35:35.613Z,20.72
2017-06-09T05:36:36.255Z,20.70
2017-06-09T05:37:36.897Z,20.70
2017-06-09T05:38:37.538Z,20.74
2017-06-09T05:39:38.180Z,20.72
2017-06-09T05:40:39.072Z,20.78
2017-06-09T05:41:39.713Z,20.70
2017-06-09T05:42:40.358Z,20.78
2017-06-09T05:43:41.001Z,20.75
2017-06-09T05:44:41.642Z,20.72
2017-06-09T05:45:42.285Z,20.82
2017-06-09T05:46:42.925Z,20.77
2017-06-09T05:47:43.566Z,20.75
2017-06-09T05:48:44.456Z,20.77
2017-06-09T05:49:45.100Z,20.84
2017-06-09T05:50:45.742Z,20.84
2017-06-09T05:51:46.382Z,20.78
2017-06-09T05:52:47.025Z,20.81
2017-06-09T05:53:47.669Z,20.80
2017-06-09T05:54:48.307Z,20.81
2017-06-09T05:55:48.949Z,20.82
2017-06-09T05:56:49.594Z,20.84
2017-06-09T05:57:50.434Z,20.88
2017-06-09T05:58:51.076Z,20.87
2017-06-09T05:59:51.720Z,20.88
2017-06-09T06:00:52.360Z,20.88
2017-06-09T06:01:53.004Z,20.92
2017-06-09T06:02:53.645Z,20.93
2017-06-09T06:03:54.288Z,20.92
2017-06-09T06:04:54.928Z,20.88
2017-06-09T06:05:55.718Z,20.96
2017-06-09T06:06:56.364Z,20.85
2017-06-09T06:07:57.004Z,20.87
2017-06-09T06:08:57.643Z,20.88
2017-06-09T06:09:58.286Z,20.96
2017-06-09T06:10:58.929Z,20.85
2017-06-09T06:11:59.518Z,20.87
2017-06-09T06:13:00.160Z,20.92
2017-06-09T06:14:01.001Z,20.92
2017-06-09T06:15:01.646Z,20.92
2017-06-09T06:16:02.287Z,20.85
2017-06-09T06:17:02.934Z,20.87
2017-06-09T06:18:03.573Z,20.88
2017-06-09T06:19:04.218Z,20.93
2017-06-09T06:20:04.855Z,20.88
2017-06-09T06:21:05.497Z,20.88
2017-06-09T06:22:06.187Z,20.84
2017-06-09T06:23:06.829Z,20.88
2017-06-09T06:24:07.472Z,20.85
2017-06-09T06:25:08.114Z,20.84
2017-06-09T06:26:08.755Z,20.78
2017-06-09T06:27:09.400Z,20.72
2017-06-09T06:28:10.098Z,20.72
2017-06-09T06:29:10.741Z,20.75
2017-06-09T06:30:11.686Z,20.75
2017-06-09T06:31:12.326Z,20.78
2017-06-09T06:32:12.969Z,20.67
2017-06-09T06:33:13.609Z,20.85
2017-06-09T06:34:14.249Z,20.88
2017-06-09T06:35:14.890Z,20.72
2017-06-09T06:36:15.534Z,20.84
2017-06-09T06:37:16.175Z,20.88
2017-06-09T06:38:16.821Z,20.87
2017-06-09T06:39:17.714Z,20.88
2017-06-09T06:40:18.353Z,20.85
2017-06-09T06:41:18.998Z,20.96
2017-06-09T06:42:19.636Z,20.87
2017-06-09T06:43:20.278Z,20.99
2017-06-09T06:44:20.924Z,20.97
2017-06-09T06:45:21.564Z,20.97
2017-06-09T06:46:22.205Z,20.97
2017-06-09T06:47:23.048Z,20.99
2017-06-09T06:48:23.691Z,20.97
2017-06-09T06:49:24.333Z,21.03
2017-06-09T06:50:24.976Z,20.95
2017-06-09T06:51:25.620Z,21.00
2017-06-09T06:52:26.262Z,20.97
2017-06-09T06:53:26.903Z,20.96
2017-06-09T06:54:27.543Z,20.93
2017-06-09T06:55:28.535Z,20.93
2017-06-09T06:56:29.176Z,20.93
2017-06-09T06:57:29.819Z,20.85
2017-06-09T06:58:30.461Z,20.92
2017-06-09T06:59:31.105Z,20.90
2017-06-09T07:00:31.746Z,20.85
2017-06-09T07:01:32.386Z,20.93
2017-06-09T07:02:33.027Z,20.93
2017-06-09T07:03:33.870Z,20.95
2017-06-09T07:04:34.512Z,20.85
2017-06-09T07:05:35.157Z,20.97
2017-06-09T07:06:35.798Z,20.96
2017-06-09T07:07:36.439Z,20.96
2017-06-09T07:08:37.078Z,20.96
2017-06-09T07:09:37.719Z,20.95
2017-06-09T07:10:38.360Z,20.97
2017-06-09T07:11:39.005Z,20.95
2017-06-09T07:12:39.848Z,20.96
2017-06-09T07:13:40.489Z,21.03
2017-06-09T07:14:41.134Z,20.96
2017-06-09T07:15:41.775Z,21.02
2017-06-09T07:16:42.416Z,20.97
2017-06-09T07:17:43.062Z,21.00
2017-06-09T07:18:43.706Z,20.96
2017-06-09T07:19:44.346Z,20.97
2017-06-09T07:20:45.188Z,20.82
2017-06-09T07:21:45.832Z,20.93
2017-06-09T07:22:46.472Z,20.78
2017-06-09T07:23:47.113Z,20.72
2017-06-09T07:24:47.759Z,20.78
2017-06-09T07:25:48.400Z,20.74
2017-06-09T07:26:49.039Z,20.80
2017-06-09T07:27:49.681Z,20.77
2017-06-09T07:28:50.522Z,20.69
2017-06-09T07:29:51.165Z,20.77
2017-06-09T07:30:51.805Z,20.78
2017-06-09T07:31:52.446Z,20.80
2017-06-09T07:32:53.089Z,20.81
2017-06-09T07:33:53.732Z,20.72
2017-06-09T07:34:54.372Z,20.74
2017-06-09T07:35:55.015Z,20.75
2017-06-09T07:36:55.859Z,20.75
2017-06-09T07:37:56.501Z,20.75
2017-06-09T07:38:57.144Z,20.81
2017-06-09T07:39:57.787Z,20.82
2017-06-09T07:40:58.425Z,20.75
2017-06-09T07:41:59.073Z,20.75
2017-06-09T07:42:59.711Z,20.77
2017-06-09T07:44:00.354Z,20.78
2017-06-09T07:45:01.396Z,20.77
2017-06-09T07:46:02.040Z,20.82
2017-06-09T07:47:02.679Z,20.85
2017-06-09T07:48:03.319Z,20.88
2017-06-09T07:49:03.963Z,20.90
2017-06-09T07:50:04.602Z,20.97
2017-06-09T07:51:05.244Z,20.96
2017-06-09T07:52:05.888Z,20.87
2017-06-09T07:53:06.530Z,20.85
2017-06-09T07:54:07.322Z,20.85
2017-06-09T07:55:07.964Z,20.92
2017-06-09T07:56:08.607Z,20.92
2017-06-09T07:57:09.252Z,20.88
2017-06-09T07:58:09.896Z,20.92
2017-06-09T07:59:10.543Z,20.93
2017-06-09T08:00:11.185Z,20.87
2017-06-09T08:01:11.826Z,20.85
2017-06-09T08:02:12.769Z,20.85
2017-06-09T08:03:13.413Z,20.92
2017-06-09T08:04:14.105Z,20.95
2017-06-09T08:05:14.751Z,20.96
2017-06-09T08:06:15.346Z,20.97
2017-06-09T08:07:15.941Z,21.00
2017-06-09T08:08:16.582Z,20.96
2017-06-09T08:09:17.222Z,21.03
2017-06-09T08:10:18.164Z,20.97
2017-06-09T08:11:18.807Z,21.05
2017-06-09T08:12:19.453Z,20.96
2017-06-09T08:13:20.091Z,21.00
2017-06-09T08:14:20.733Z,20.97
2017-06-09T08:15:21.380Z,21.03
2017-06-09T08:16:22.024Z,21.02
2017-06-09T08:17:22.667Z,20.99
2017-06-09T08:18:23.508Z,21.07
2017-06-09T08:19:24.151Z,20.97
2017-06-09T08:20:24.793Z,21.05
2017-06-09T08:21:25.437Z,21.03
2017-06-09T08:22:26.079Z,21.05
2017-06-09T08:23:26.724Z,21.06
2017-06-09T08:24:27.365Z,21.07
2017-06-09T08:25:28.006Z,21.09
2017-06-09T08:26:28.652Z,21.02
2017-06-09T08:27:29.493Z,20.99
2017-06-09T08:28:30.137Z,21.07
2017-06-09T08:29:30.780Z,21.06
2017-06-09T08:30:31.426Z,21.09
2017-06-09T08:31:32.069Z,21.11
2017-06-09T08:32:32.712Z,21.12
2017-06-09T08:33:33.354Z,21.11
2017-06-09T08:34:33.995Z,21.14
2017-06-09T08:35:35.086Z,21.12
2017-06-09T08:36:35.733Z,21.17
2017-06-09T08:37:36.374Z,21.09
2017-06-09T08:38:37.018Z,21.17
2017-06-09T08:39:37.660Z,21.14
2017-06-09T08:40:38.303Z,21.12
2017-06-09T08:41:38.946Z,21.11
2017-06-09T08:42:39.591Z,21.21
2017-06-09T08:43:40.435Z,21.22
2017-06-09T08:44:41.077Z,21.17
2017-06-09T08:45:41.723Z,21.20
2017-06-09T08:46:42.364Z,21.17
2017-06-09T08:47:42.956Z,21.20
2017-06-09T08:48:43.600Z,21.29
2017-06-09T08:49:44.246Z,21.29
2017-06-09T08:50:44.889Z,21.15
2017-06-09T08:51:45.630Z,21.21
2017-06-09T08:52:46.274Z,21.32
2017-06-09T08:53:46.920Z,21.21
2017-06-09T08:54:47.560Z,21.24
2017-06-09T08:55:48.201Z,21.24
2017-06-09T08:56:48.794Z,21.27
2017-06-09T08:57:49.437Z,21.35
2017-06-09T08:58:50.083Z,21.32
2017-06-09T08:59:50.726Z,21.29
2017-06-09T09:00:51.519Z,21.32
2017-06-09T09:01:52.163Z,21.35
2017-06-09T09:02:52.809Z,21.36
2017-06-09T09:03:53.448Z,21.27
2017-06-09T09:04:54.100Z,21.33
2017-06-09T09:05:54.736Z,21.30
2017-06-09T09:06:55.381Z,21.36
2017-06-09T09:07:56.022Z,21.37
2017-06-09T09:08:56.866Z,21.29
2017-06-09T09:09:57.509Z,21.37
2017-06-09T09:10:58.154Z,21.39
2017-06-09T09:11:58.796Z,21.37
2017-06-09T09:12:59.440Z,21.35
2017-06-09T09:14:00.085Z,21.37
2017-06-09T09:15:00.724Z,21.42
2017-06-09T09:16:01.368Z,21.33
2017-06-09T09:17:02.212Z,21.33
2017-06-09T09:18:02.860Z,21.30
2017-06-09T09:19:03.504Z,21.30
2017-06-09T09:20:04.153Z,21.33
2017-06-09T09:21:04.794Z,21.37
2017-06-09T09:22:05.443Z,21.42
2017-06-09T09:23:06.078Z,21.36
2017-06-09T09:24:06.719Z,21.33
2017-06-09T09:25:07.662Z,21.40
2017-06-09T09:26:08.313Z,21.35
2017-06-09T09:27:08.952Z,21.42
2017-06-09T09:28:09.590Z,21.39
2017-06-09T09:29:10.235Z,21.40
2017-06-09T09:30:10.878Z,21.40
2017-06-09T09:31:11.520Z,21.40
2017-06-09T09:32:12.163Z,21.39
2017-06-09T09:33:13.006Z,21.42
2017-06-09T09:34:13.647Z,21.43
2017-06-09T09:35:14.292Z,21.40
2017-06-09T09:36:14.937Z,21.42
2017-06-09T09:37:15.579Z,21.39
2017-06-09T09:38:16.222Z,21.40
2017-06-09T09:39:16.864Z,21.40
2017-06-09T09:40:17.509Z,21.42
2017-06-09T09:41:18.152Z,21.45
2017-06-09T09:42:18.993Z,21.39
2017-06-09T09:43:19.636Z,21.40
2017-06-09T09:44:20.279Z,21.42
2017-06-09T09:45:20.921Z,21.42
2017-06-09T09:46:21.563Z,21.45
2017-06-09T09:47:22.210Z,21.42
2017-06-09T09:48:22.849Z,21.40
2017-06-09T09:49:23.490Z,21.45
2017-06-09T09:50:24.335Z,21.46
2017-06-09T09:51:24.977Z,21.45
2017-06-09T09:52:25.622Z,21.40
2017-06-09T09:53:26.262Z,21.39
2017-06-09T09:54:26.906Z,21.40
2017-06-09T09:55:27.556Z,21.42
2017-06-09T09:56:28.191Z,21.42
2017-06-09T09:57:28.834Z,21.42
2017-06-09T09:58:29.680Z,21.42
2017-06-09T09:59:30.324Z,21.42
2017-06-09T10:00:30.966Z,21.42
2017-06-09T10:01:31.609Z,21.48
2017-06-09T10:02:32.251Z,21.46
2017-06-09T10:03:32.897Z,21.45
2017-06-09T10:04:33.540Z,21.45
2017-06-09T10:05:34.184Z,21.51
2017-06-09T10:06:35.025Z,21.46
2017-06-09T10:07:35.672Z,21.43
2017-06-09T10:08:36.313Z,21.51
2017-06-09T10:09:36.957Z,21.48
2017-06-09T10:10:37.599Z,21.48
2017-06-09T10:11:38.243Z,21.46
2017-06-09T10:12:38.888Z,21.46
2017-06-09T10:13:39.527Z,21.48
2017-06-09T10:14:40.172Z,21.46
2017-06-09T10:15:41.013Z,21.54
2017-06-09T10:16:41.660Z,21.46
2017-06-09T10:17:42.307Z,21.45
2017-06-09T10:18:42.946Z,21.51
2017-06-09T10:19:43.587Z,21.50
2017-06-09T10:20:44.232Z,21.42
2017-06-09T10:21:44.875Z,21.46
2017-06-09T10:22:45.516Z,21.46
2017-06-09T10:23:46.608Z,21.48
2017-06-09T10:24:47.252Z,21.51
2017-06-09T10:25:47.894Z,21.46
2017-06-09T10:26:48.538Z,21.55
2017-06-09T10:27:49.180Z,21.54
2017-06-09T10:28:49.821Z,21.54
2017-06-09T10:29:50.464Z,21.52
2017-06-09T10:30:51.110Z,21.54
2017-06-09T10:31:51.903Z,21.52
2017-06-09T10:32:52.549Z,21.54
2017-06-09T10:33:53.188Z,21.57
2017-06-09T10:34:53.833Z,21.55
2017-06-09T10:35:54.478Z,21.55
2017-06-09T10:36:55.123Z,21.54
2017-06-09T10:37:55.765Z,21.51
2017-06-09T10:38:56.356Z,21.57
2017-06-09T10:39:57.198Z,21.55
2017-06-09T10:40:57.844Z,21.60
2017-06-09T10:41:58.495Z,21.60
2017-06-09T10:42:59.132Z,21.57
2017-06-09T10:43:59.777Z,21.54
2017-06-09T10:45:00.420Z,21.58
2017-06-09T10:46:01.069Z,21.60
2017-06-09T10:47:01.705Z,21.55
2017-06-09T10:48:02.551Z,21.66
2017-06-09T10:49:03.194Z,21.60
2017-06-09T10:50:03.837Z,21.60
2017-06-09T10:51:04.480Z,21.55
2017-06-09T10:52:05.126Z,21.60
2017-06-09T10:53:05.765Z,21.58
2017-06-09T10:54:06.409Z,21.57
2017-06-09T10:55:07.054Z,21.60
2017-06-09T10:56:07.694Z,21.57
2017-06-09T10:57:08.537Z,21.60
2017-06-09T10:58:09.179Z,21.64
2017-06-09T10:59:09.821Z,21.64
2017-06-09T11:00:10.465Z,21.58
2017-06-09T11:01:11.110Z,21.60
2017-06-09T11:02:11.751Z,21.69
2017-06-09T11:03:12.395Z,21.67
2017-06-09T11:04:13.042Z,21.57
2017-06-09T11:05:13.834Z,21.55
2017-06-09T11:06:14.477Z,21.70
2017-06-09T11:07:15.120Z,21.64
2017-06-09T11:08:15.765Z,21.69
2017-06-09T11:09:16.407Z,21.67
2017-06-09T11:10:17.051Z,21.69
2017-06-09T11:11:17.695Z,21.69
2017-06-09T11:12:18.337Z,21.73
2017-06-09T11:13:19.181Z,21.73
2017-06-09T11:14:19.821Z,21.76
2017-06-09T11:15:20.467Z,21.80
2017-06-09T11:16:21.110Z,21.76
2017-06-09T11:17:21.755Z,21.83
2017-06-09T11:18:22.396Z,21.77
2017-06-09T11:19:23.038Z,21.76
2017-06-09T11:20:23.682Z,21.73
2017-06-09T11:21:24.476Z,21.76
2017-06-09T11:22:25.120Z,21.75
2017-06-09T11:23:25.762Z,21.76
2017-06-09T11:24:26.406Z,21.76
2017-06-09T11:25:27.046Z,21.76
2017-06-09T11:26:27.690Z,21.73
2017-06-09T11:27:28.330Z,21.70
2017-06-09T11:28:28.986Z,21.76
2017-06-09T11:29:29.679Z,21.75
2017-06-09T11:30:30.573Z,21.73
2017-06-09T11:31:31.218Z,21.75
2017-06-09T11:32:31.860Z,21.77
2017-06-09T11:33:32.506Z,21.73
2017-06-09T11:34:33.098Z,21.79
2017-06-09T11:35:33.800Z,21.77
2017-06-09T11:36:34.443Z,21.76
2017-06-09T11:37:35.086Z,21.80
2017-06-09T11:38:35.879Z,21.72
2017-06-09T11:39:36.526Z,21.77
2017-06-09T11:40:37.169Z,21.76
2017-06-09T11:41:37.810Z,21.73
2017-06-09T11:42:38.452Z,21.75
2017-06-09T11:43:39.096Z,21.79
2017-06-09T11:44:39.740Z,21.76
2017-06-09T11:45:40.384Z,21.77
2017-06-09T11:46:41.475Z,21.79
2017-06-09T11:47:42.120Z,21.76
2017-06-09T11:48:42.763Z,21.80
2017-06-09T11:49:43.403Z,21.83
2017-06-09T11:50:44.048Z,21.83
2017-06-09T11:51:44.690Z,21.83
2017-06-09T11:52:45.284Z,21.87
2017-06-09T11:53:45.925Z,21.80
2017-06-09T11:54:46.718Z,21.82
2017-06-09T11:55:47.364Z,21.89
2017-06-09T11:56:48.007Z,21.91
2017-06-09T11:57:48.652Z,21.91
2017-06-09T11:58:49.294Z,21.89
2017-06-09T11:59:49.936Z,21.80
2017-06-09T12:00:50.579Z,21.89
2017-06-09T12:01:51.223Z,21.92
2017-06-09T12:02:52.065Z,21.87
2017-06-09T12:03:52.711Z,21.76
2017-06-09T12:04:53.353Z,21.80
2017-06-09T12:05:53.995Z,21.89
2017-06-09T12:06:54.639Z,21.87
2017-06-09T12:07:55.334Z,21.87
2017-06-09T12:08:55.975Z,21.96
2017-06-09T12:09:56.667Z,21.87
2017-06-09T12:10:57.311Z,21.92
2017-06-09T12:11:58.207Z,21.87
2017-06-09T12:12:58.848Z,21.83
2017-06-09T12:13:59.492Z,21.91
2017-06-09T12:15:00.138Z,21.91
2017-06-09T12:16:00.780Z,21.93
2017-06-09T12:17:01.421Z,21.91
2017-06-09T12:18:02.064Z,21.89
2017-06-09T12:19:02.707Z,21.89
2017-06-09T12:20:03.600Z,21.96
2017-06-09T12:21:04.248Z,21.89
2017-06-09T12:22:04.893Z,21.91
2017-06-09T12:23:05.535Z,21.89
2017-06-09T12:24:06.177Z,21.92
2017-06-09T12:25:06.822Z,22.07
2017-06-09T12:26:07.464Z,21.95
2017-06-09T12:27:08.105Z,21.89
2017-06-09T12:28:08.899Z,21.95
2017-06-09T12:29:09.540Z,21.99
2017-06-09T12:30:10.191Z,22.07
2017-06-09T12:31:10.827Z,22.00
2017-06-09T12:32:11.469Z,22.13
2017-06-09T12:33:12.112Z,22.07
2017-06-09T12:34:12.758Z,22.06
2017-06-09T12:35:13.403Z,22.02
2017-06-09T12:36:14.248Z,22.10
2017-06-09T12:37:14.889Z,22.10
2017-06-09T12:38:15.536Z,22.06
2017-06-09T12:39:16.178Z,22.08
2017-06-09T12:40:16.932Z,22.04
2017-06-09T12:41:17.633Z,22.06
2017-06-09T12:42:18.277Z,22.04
2017-06-09T12:43:18.918Z,22.04
2017-06-09T12:44:19.560Z,22.06
2017-06-09T12:45:20.356Z,22.08
2017-06-09T12:46:21.000Z,22.10
2017-06-09T12:47:21.646Z,22.08
2017-06-09T12:48:22.287Z,22.10
2017-06-09T12:49:22.930Z,22.11
2017-06-09T12:50:23.572Z,22.07
2017-06-09T12:51:24.217Z,22.07
2017-06-09T12:52:24.856Z,22.06
2017-06-09T12:53:25.700Z,22.06
2017-06-09T12:54:26.344Z,22.06
2017-06-09T12:55:26.988Z,21.93
2017-06-09T12:56:27.629Z,22.00
2017-06-09T12:57:28.274Z,22.02
2017-06-09T12:58:28.916Z,22.02
2017-06-09T12:59:29.560Z,22.07
2017-06-09T13:00:30.204Z,22.07
2017-06-09T13:01:31.000Z,22.04